Terminal Aerodrome Forecast
Issued by NWS

Home | Current Version | Previous Version | Text Only | Print | Product List | Glossary On
Versions: 1 2 3 4 5 6 7 8 9 10 11 12 13 14 15 16
643
FTUS46 KLOX 191351 AAA
TAFSBP
TAF AMD
KSBP 191351Z 1914/2012 VRB03KT P6SM BKN006
     FM191530 VRB03KT P6SM FEW008
     FM191700 30008KT P6SM SCT250
     FM191900 31014KT P6SM SCT060 BKN150
     FM200200 30007KT P6SM BKN015 OVC100
     FM200900 28006KT P6SM -SHRA BKN025 OVC050=

USA.gov is the U.S. government's official web portal to all federal, state and local government web resources and services.